Time,TemperatureF,DewpointF,PressureIn,WindDirection,WindDirectionDegrees,WindSpeedMPH,WindSpeedGustMPH,Humidity,HourlyPrecipIn,Conditions,Clouds,dailyrainin,SolarRadiationWatts/m^2,SoftwareType,DateUTC
2013-04-26 00:01:00,43.0,13.0,30.11,WNW,286,4.0,6.0,29,-99.99,,,-99.99,0.000000,,2013-04-26 07:01:00,
2013-04-26 00:10:00,34.0,12.0,30.12,NE,49,1.0,5.0,40,-99.99,,,-99.99,0.000000,,2013-04-26 07:10:00,
2013-04-26 00:52:00,34.0,12.0,30.12,NE,49,1.0,5.0,40,-99.99,,,-99.99,0.000000,,2013-04-26 07:52:00,
2013-04-26 01:02:00,34.0,12.0,30.12,NE,49,1.0,5.0,40,-99.99,,,-99.99,0.000000,,2013-04-26 08:02:00,
2013-04-26 01:10:00,35.0,13.0,30.12,WNW,296,4.0,6.0,39,-99.99,,,-99.99,0.000000,,2013-04-26 08:10:00,
2013-04-26 01:51:00,35.0,13.0,30.12,WNW,296,4.0,6.0,39,-99.99,,,-99.99,0.000000,,2013-04-26 08:51:00,
2013-04-26 02:01:00,35.0,13.0,30.12,WNW,296,4.0,6.0,39,-99.99,,,-99.99,0.000000,,2013-04-26 09:01:00,
2013-04-26 02:10:00,36.0,12.0,30.13,WNW,291,2.0,3.0,36,-99.99,,,-99.99,0.000000,,2013-04-26 09:10:00,
2013-04-26 02:53:00,36.0,12.0,30.13,WNW,291,2.0,3.0,36,-99.99,,,-99.99,0.000000,,2013-04-26 09:53:00,
2013-04-26 03:03:00,36.0,12.0,30.13,WNW,291,2.0,3.0,36,-99.99,,,-99.99,0.000000,,2013-04-26 10:03:00,
2013-04-26 03:10:00,32.0,12.0,30.14,SSW,212,3.0,4.0,42,-99.99,,,-99.99,0.000000,,2013-04-26 10:10:00,
2013-04-26 03:52:00,32.0,12.0,30.14,SSW,212,3.0,4.0,42,-99.99,,,-99.99,0.000000,,2013-04-26 10:52:00,
2013-04-26 04:02:00,32.0,12.0,30.14,SSW,212,3.0,4.0,42,-99.99,,,-99.99,0.000000,,2013-04-26 11:02:00,
2013-04-26 04:10:00,35.0,12.0,30.17,SW,218,3.0,4.0,37,-99.99,,,-99.99,0.000000,,2013-04-26 11:10:00,
2013-04-26 04:52:00,35.0,12.0,30.17,SW,218,3.0,4.0,37,-99.99,,,-99.99,0.000000,,2013-04-26 11:52:00,
2013-04-26 05:01:00,35.0,12.0,30.17,SW,218,3.0,4.0,37,-99.99,,,-99.99,0.000000,,2013-04-26 12:01:00,
2013-04-26 05:10:00,29.0,13.0,30.19,South,174,2.0,3.0,51,-99.99,,,-99.99,0.000000,,2013-04-26 12:10:00,
2013-04-26 05:52:00,29.0,13.0,30.19,South,174,2.0,3.0,51,-99.99,,,-99.99,0.000000,,2013-04-26 12:52:00,
2013-04-26 06:01:00,29.0,13.0,30.19,South,174,2.0,3.0,51,-99.99,,,-99.99,0.000000,,2013-04-26 13:01:00,
2013-04-26 06:10:00,29.0,18.0,30.21,West,273,4.0,5.0,63,-99.99,,,-99.99,30.000000,,2013-04-26 13:10:00,
2013-04-26 06:52:00,29.0,18.0,30.21,West,273,4.0,5.0,63,-99.99,,,-99.99,30.000000,,2013-04-26 13:52:00,
2013-04-26 07:01:00,29.0,18.0,30.21,West,273,4.0,5.0,63,-99.99,,,-99.99,30.000000,,2013-04-26 14:01:00,
2013-04-26 07:10:00,37.0,17.0,30.23,NE,37,1.0,3.0,44,-99.99,,,-99.99,220.000000,,2013-04-26 14:10:00,
2013-04-26 07:51:00,37.0,17.0,30.23,NE,37,1.0,3.0,44,-99.99,,,-99.99,220.000000,,2013-04-26 14:51:00,
2013-04-26 08:01:00,37.0,17.0,30.23,NE,37,1.0,3.0,44,-99.99,,,-99.99,220.000000,,2013-04-26 15:01:00,
2013-04-26 08:10:00,49.0,15.0,30.25,ESE,114,0.0,1.0,25,-99.99,,,-99.99,440.000000,,2013-04-26 15:10:00,
2013-04-26 08:53:00,49.0,15.0,30.25,ESE,114,0.0,1.0,25,-99.99,,,-99.99,440.000000,,2013-04-26 15:53:00,
2013-04-26 09:03:00,49.0,15.0,30.25,ESE,114,0.0,1.0,25,-99.99,,,-99.99,440.000000,,2013-04-26 16:03:00,
2013-04-26 09:10:00,55.0,17.0,30.28,North,356,2.0,5.0,22,-99.99,,,-99.99,650.000000,,2013-04-26 16:10:00,
2013-04-26 09:52:00,55.0,17.0,30.28,North,356,2.0,5.0,22,-99.99,,,-99.99,650.000000,,2013-04-26 16:52:00,
2013-04-26 10:02:00,55.0,17.0,30.28,North,356,2.0,5.0,22,-99.99,,,-99.99,650.000000,,2013-04-26 17:02:00,
2013-04-26 10:10:00,58.0,12.0,30.28,NE,40,3.0,7.0,16,-99.99,,,-99.99,830.000000,,2013-04-26 17:10:00,
2013-04-26 10:51:00,58.0,12.0,30.28,NE,40,3.0,7.0,16,-99.99,,,-99.99,830.000000,,2013-04-26 17:51:00,
2013-04-26 11:02:00,58.0,12.0,30.28,NE,40,3.0,7.0,16,-99.99,,,-99.99,830.000000,,2013-04-26 18:02:00,
2013-04-26 11:10:00,62.0,16.0,30.28,NNE,23,3.0,8.0,17,-99.99,,,-99.99,960.000000,,2013-04-26 18:10:00,
2013-04-26 11:52:00,62.0,16.0,30.28,NNE,23,3.0,8.0,17,-99.99,,,-99.99,960.000000,,2013-04-26 18:52:00,
2013-04-26 12:01:00,62.0,16.0,30.28,NNE,23,3.0,8.0,17,-99.99,,,-99.99,960.000000,,2013-04-26 19:01:00,
2013-04-26 12:10:00,64.0,18.0,30.26,NW,321,2.0,6.0,17,-99.99,,,-99.99,1020.000000,,2013-04-26 19:10:00,
2013-04-26 12:52:00,64.0,18.0,30.26,NW,321,2.0,6.0,17,-99.99,,,-99.99,1020.000000,,2013-04-26 19:52:00,
2013-04-26 13:02:00,64.0,18.0,30.26,NW,321,2.0,6.0,17,-99.99,,,-99.99,1020.000000,,2013-04-26 20:02:00,
2013-04-26 13:10:00,65.0,20.0,30.25,NNE,28,7.0,15.0,18,-99.99,,,-99.99,1020.000000,,2013-04-26 20:10:00,
2013-04-26 13:51:00,65.0,20.0,30.25,NNE,28,7.0,15.0,18,-99.99,,,-99.99,1020.000000,,2013-04-26 20:51:00,
2013-04-26 14:01:00,65.0,20.0,30.25,NNE,28,7.0,15.0,18,-99.99,,,-99.99,1020.000000,,2013-04-26 21:01:00,
2013-04-26 14:10:00,66.0,22.0,30.25,North,350,8.0,16.0,18,-99.99,,,-99.99,960.000000,,2013-04-26 21:10:00,
2013-04-26 14:52:00,66.0,22.0,30.25,North,350,8.0,16.0,18,-99.99,,,-99.99,960.000000,,2013-04-26 21:52:00,
2013-04-26 15:02:00,66.0,22.0,30.25,North,350,8.0,16.0,18,-99.99,,,-99.99,960.000000,,2013-04-26 22:02:00,
2013-04-26 15:10:00,67.0,20.0,30.23,NNW,332,5.0,9.0,16,-99.99,,,-99.99,840.000000,,2013-04-26 22:10:00,
2013-04-26 15:52:00,67.0,20.0,30.23,NNW,332,5.0,9.0,16,-99.99,,,-99.99,840.000000,,2013-04-26 22:52:00,
2013-04-26 16:01:00,67.0,20.0,30.23,NNW,332,5.0,9.0,16,-99.99,,,-99.99,840.000000,,2013-04-26 23:01:00,
2013-04-26 16:10:00,68.0,17.0,30.21,East,88,4.0,10.0,14,-99.99,,,-99.99,680.000000,,2013-04-26 23:10:00,
2013-04-26 16:52:00,68.0,17.0,30.21,East,88,4.0,10.0,14,-99.99,,,-99.99,680.000000,,2013-04-26 23:52:00,
2013-04-26 17:01:00,68.0,17.0,30.21,East,88,4.0,10.0,14,-99.99,,,-99.99,680.000000,,2013-04-27 00:01:00,
2013-04-26 17:10:00,67.0,20.0,30.21,NE,44,4.0,10.0,16,-99.99,,,-99.99,410.000000,,2013-04-27 00:10:00,
2013-04-26 17:51:00,67.0,20.0,30.21,NE,44,4.0,10.0,16,-99.99,,,-99.99,410.000000,,2013-04-27 00:51:00,
2013-04-26 18:01:00,67.0,20.0,30.21,NE,44,4.0,10.0,16,-99.99,,,-99.99,410.000000,,2013-04-27 01:01:00,
2013-04-26 18:10:00,66.0,14.0,30.22,SSW,210,3.0,6.0,13,-99.99,,,-99.99,80.000000,,2013-04-27 01:10:00,
2013-04-26 18:52:00,66.0,14.0,30.22,SSW,210,3.0,6.0,13,-99.99,,,-99.99,80.000000,,2013-04-27 01:52:00,
2013-04-26 19:01:00,66.0,14.0,30.22,SSW,210,3.0,6.0,13,-99.99,,,-99.99,80.000000,,2013-04-27 02:01:00,
2013-04-26 19:52:00,56.0,24.0,30.23,West,274,5.0,7.0,29,-99.99,,,-99.99,20.000000,,2013-04-27 02:52:00,
2013-04-26 20:10:00,56.0,19.0,30.25,SW,222,4.0,7.0,23,-99.99,,,-99.99,0.000000,,2013-04-27 03:10:00,
2013-04-26 20:52:00,56.0,19.0,30.25,SW,222,4.0,7.0,23,-99.99,,,-99.99,0.000000,,2013-04-27 03:52:00,
2013-04-26 21:02:00,56.0,19.0,30.25,SW,222,4.0,7.0,23,-99.99,,,-99.99,0.000000,,2013-04-27 04:02:00,
2013-04-26 21:10:00,56.0,20.0,30.29,North,351,6.0,9.0,24,-99.99,,,-99.99,0.000000,,2013-04-27 04:10:00,
2013-04-26 21:52:00,56.0,20.0,30.29,North,351,6.0,9.0,24,-99.99,,,-99.99,0.000000,,2013-04-27 04:52:00,
2013-04-26 22:02:00,56.0,20.0,30.29,North,351,6.0,9.0,24,-99.99,,,-99.99,0.000000,,2013-04-27 05:02:00,
2013-04-26 23:51:00,49.0,19.0,30.30,South,188,5.0,8.0,30,-99.99,,,-99.99,0.000000,,2013-04-27 06:51:00,